Terminal Aerodrome Forecast
Issued by NWS Cleveland, OH

Home | Current Version | Previous Version | Text Only | Print | Product List | Glossary Off
Versions: 1 2 3 4 5 6 7 8 9 10 11 12 13 14 15 16 17 18 19 20 21 22 23

000
FTUS41 KCLE 200319 AAA
TAFYNG
TAF AMD
KYNG 200319Z 2003/2024 VRB03KT P6SM SCT008 OVC250
     FM201000 10008KT P6SM OVC080
     FM201100 10008KT 6SM -RA BR OVC035
     FM201300 11010KT 4SM -RA BR OVC015
     FM201400 13009KT 1 1/2SM -RA BR OVC009
     FM202000 20007KT 4SM -RA BR OVC009
     FM202300 20005KT P6SM OVC009=

USA.gov is the U.S. government's official web portal to all federal, state and local government web resources and services.